createdAt,value
2017-11-13T00:00:33.769Z,99.30
2017-11-13T00:03:01.919Z,99.10
2017-11-13T00:05:30.548Z,99.30
2017-11-13T00:07:59.437Z,99.70
2017-11-13T00:10:28.711Z,99.10
2017-11-13T00:12:56.842Z,99.00
2017-11-13T00:15:24.980Z,99.50
2017-11-13T00:17:53.149Z,99.90
2017-11-13T00:20:21.316Z,99.90
2017-11-13T00:22:49.448Z,99.90
2017-11-13T00:25:17.576Z,99.90
2017-11-13T00:27:46.433Z,99.90
2017-11-13T00:30:15.064Z,99.90
2017-11-13T00:32:43.165Z,99.90
2017-11-13T00:35:11.281Z,99.90
2017-11-13T00:37:39.408Z,99.60
2017-11-13T00:40:07.552Z,99.80
2017-11-13T00:42:35.688Z,99.90
2017-11-13T00:45:03.828Z,99.90
2017-11-13T00:47:31.967Z,99.90
2017-11-13T00:50:00.115Z,99.90
2017-11-13T00:52:28.645Z,99.90
2017-11-13T00:54:56.796Z,99.80
2017-11-13T00:57:24.929Z,99.80
2017-11-13T00:59:53.081Z,99.60
2017-11-13T01:02:21.216Z,99.70
2017-11-13T01:04:49.390Z,99.90
2017-11-13T01:07:18.273Z,99.80
2017-11-13T01:09:47.143Z,99.90
2017-11-13T01:12:15.649Z,99.90
2017-11-13T01:14:44.552Z,99.90
2017-11-13T01:17:13.857Z,99.90
2017-11-13T01:19:42.021Z,99.90
2017-11-13T01:22:10.149Z,99.90
2017-11-13T01:24:38.281Z,99.90
2017-11-13T01:27:06.426Z,99.90
2017-11-13T01:29:34.584Z,99.80
2017-11-13T01:32:02.736Z,99.60
2017-11-13T01:34:31.197Z,99.50
2017-11-13T01:36:59.377Z,99.50
2017-11-13T01:39:27.499Z,99.30
2017-11-13T01:41:55.653Z,99.40
2017-11-13T01:44:23.792Z,99.70
2017-11-13T01:46:51.932Z,99.60
2017-11-13T01:49:20.837Z,99.70
2017-11-13T01:51:49.824Z,99.40
2017-11-13T01:54:17.961Z,99.40
2017-11-13T01:56:46.176Z,99.60
2017-11-13T01:59:14.308Z,99.80
2017-11-13T02:01:42.873Z,99.90
2017-11-13T02:04:11.111Z,99.90
2017-11-13T02:06:40.147Z,99.90
2017-11-13T02:09:08.392Z,99.90
2017-11-13T02:11:36.628Z,99.90
2017-11-13T02:14:05.301Z,99.90
2017-11-13T02:16:33.524Z,99.90
2017-11-13T02:19:01.673Z,99.90
2017-11-13T02:21:30.901Z,99.90
2017-11-13T02:23:59.161Z,99.90
2017-11-13T02:26:28.600Z,99.90
2017-11-13T02:28:56.810Z,99.90
2017-11-13T02:31:25.720Z,99.90
2017-11-13T02:33:53.934Z,99.90
2017-11-13T02:36:22.422Z,99.90
2017-11-13T02:38:50.633Z,99.90
2017-11-13T02:41:18.826Z,99.90
2017-11-13T02:43:47.838Z,99.90
2017-11-13T02:46:16.320Z,99.90
2017-11-13T02:48:45.250Z,99.90
2017-11-13T02:51:13.469Z,99.90
2017-11-13T02:53:42.442Z,99.90
2017-11-13T02:56:10.691Z,99.90
2017-11-13T02:58:38.998Z,99.90
2017-11-13T03:01:07.248Z,99.90
2017-11-13T03:03:35.418Z,99.90
2017-11-13T03:06:03.590Z,99.90
2017-11-13T03:08:32.036Z,99.90
2017-11-13T03:11:01.005Z,99.90
2017-11-13T03:13:29.172Z,99.90
2017-11-13T03:15:57.649Z,99.90
2017-11-13T03:18:25.812Z,99.90
2017-11-13T03:20:53.996Z,99.90
2017-11-13T03:23:22.173Z,99.90
2017-11-13T03:25:50.313Z,99.90
2017-11-13T03:28:18.464Z,99.90
2017-11-13T03:30:46.622Z,99.90
2017-11-13T03:33:15.231Z,99.90
2017-11-13T03:35:43.365Z,99.90
2017-11-13T03:38:11.493Z,99.90
2017-11-13T03:40:39.609Z,99.90
2017-11-13T03:43:07.764Z,99.90
2017-11-13T03:45:35.893Z,99.90
2017-11-13T03:48:03.765Z,99.90
2017-11-13T03:50:31.889Z,99.90
2017-11-13T03:53:00.018Z,99.90
2017-11-13T03:55:28.129Z,99.90
2017-11-13T03:57:57.549Z,99.90
2017-11-13T04:00:25.709Z,99.90
2017-11-13T04:02:53.868Z,99.90
2017-11-13T04:05:22.817Z,99.90
2017-11-13T04:07:51.000Z,99.60
2017-11-13T04:10:19.145Z,99.30
2017-11-13T04:12:48.021Z,98.80
2017-11-13T04:15:16.169Z,98.80
2017-11-13T04:17:44.577Z,98.80
2017-11-13T04:20:13.138Z,99.00
2017-11-13T04:22:41.313Z,99.20
2017-11-13T04:25:09.436Z,98.80
2017-11-13T04:27:37.560Z,99.10
2017-11-13T04:30:05.706Z,99.90
2017-11-13T04:32:33.852Z,99.80
2017-11-13T04:35:02.734Z,99.60
2017-11-13T04:37:31.605Z,99.90
2017-11-13T04:39:59.745Z,99.90
2017-11-13T04:42:28.392Z,99.90
2017-11-13T04:44:57.275Z,99.90
2017-11-13T04:47:25.424Z,99.90
2017-11-13T04:49:53.552Z,99.90
2017-11-13T04:52:21.665Z,99.90
2017-11-13T04:54:49.801Z,99.90
2017-11-13T04:57:17.934Z,99.90
2017-11-13T04:59:48.368Z,99.80
2017-11-13T05:02:16.516Z,99.90
2017-11-13T05:04:44.641Z,99.90
2017-11-13T05:07:12.841Z,99.70
2017-11-13T05:09:41.024Z,99.40
2017-11-13T05:12:09.204Z,99.40
2017-11-13T05:14:37.358Z,99.90
2017-11-13T05:17:05.559Z,99.90
2017-11-13T05:19:33.958Z,99.90
2017-11-13T05:22:02.094Z,99.90
2017-11-13T05:24:30.472Z,99.90
2017-11-13T05:26:59.261Z,99.90
2017-11-13T05:29:27.388Z,99.90
2017-11-13T05:31:55.530Z,99.90
2017-11-13T05:34:23.701Z,99.90
2017-11-13T05:36:51.852Z,99.90
2017-11-13T05:39:19.968Z,99.90
2017-11-13T05:41:48.100Z,99.90
2017-11-13T05:44:16.259Z,99.90
2017-11-13T05:46:44.381Z,99.80
2017-11-13T05:49:12.857Z,99.90
2017-11-13T05:51:40.985Z,99.90
2017-11-13T05:54:09.116Z,99.90
2017-11-13T05:56:37.313Z,99.90
2017-11-13T05:59:05.432Z,99.90
2017-11-13T06:01:33.553Z,99.90
2017-11-13T06:04:01.695Z,99.80
2017-11-13T06:06:29.810Z,99.50
2017-11-13T06:08:57.934Z,99.60
2017-11-13T06:11:27.501Z,99.40
2017-11-13T06:13:55.624Z,99.20
2017-11-13T06:16:23.740Z,99.70
2017-11-13T06:18:51.853Z,99.90
2017-11-13T06:21:20.304Z,99.90
2017-11-13T06:23:48.505Z,99.90
2017-11-13T06:26:16.644Z,99.90
2017-11-13T06:28:45.084Z,99.90
2017-11-13T06:31:13.209Z,99.90
2017-11-13T06:33:41.333Z,99.90
2017-11-13T06:36:09.461Z,99.80
2017-11-13T06:38:37.601Z,99.70
2017-11-13T06:41:06.469Z,99.20
2017-11-13T06:43:34.606Z,99.10
2017-11-13T06:46:02.736Z,99.10
2017-11-13T06:48:30.898Z,99.00
2017-11-13T06:50:59.401Z,98.70
2017-11-13T06:53:27.548Z,98.60
2017-11-13T06:55:55.700Z,98.50
2017-11-13T06:58:23.828Z,98.40
2017-11-13T07:00:51.980Z,98.30
2017-11-13T07:03:20.097Z,98.00
2017-11-13T07:05:48.239Z,98.00
2017-11-13T07:08:16.685Z,97.90
2017-11-13T07:10:44.824Z,97.70
2017-11-13T07:13:13.782Z,97.60
2017-11-13T07:15:41.926Z,97.50
2017-11-13T07:18:10.069Z,97.60
2017-11-13T07:20:38.437Z,97.50
2017-11-13T07:23:06.616Z,97.60
2017-11-13T07:25:34.782Z,97.80
2017-11-13T07:28:02.921Z,97.50
2017-11-13T07:30:31.784Z,97.80
2017-11-13T07:32:59.896Z,97.70
2017-11-13T07:35:29.176Z,97.70
2017-11-13T07:37:57.322Z,97.60
2017-11-13T07:40:25.468Z,97.30
2017-11-13T07:42:53.604Z,97.40
2017-11-13T07:45:22.460Z,97.40
2017-11-13T07:47:50.574Z,97.40
2017-11-13T07:50:19.438Z,97.10
2017-11-13T07:52:47.565Z,97.00
2017-11-13T07:55:15.680Z,97.20
2017-11-13T07:57:44.562Z,96.50
2017-11-13T08:00:12.700Z,96.40
2017-11-13T08:02:41.270Z,96.70
2017-11-13T08:05:10.268Z,96.70
2017-11-13T08:07:39.040Z,96.70
2017-11-13T08:10:07.920Z,96.70
2017-11-13T08:12:36.800Z,97.50
2017-11-13T08:15:04.976Z,96.70
2017-11-13T08:17:33.096Z,96.80
2017-11-13T08:20:01.241Z,96.60
2017-11-13T08:22:30.172Z,96.30
2017-11-13T08:24:58.625Z,96.30
2017-11-13T08:27:27.085Z,96.20
2017-11-13T08:29:55.215Z,96.10
2017-11-13T08:32:23.350Z,95.90
2017-11-13T08:34:51.548Z,95.70
2017-11-13T08:37:19.668Z,95.40
2017-11-13T08:39:49.300Z,94.80
2017-11-13T08:42:18.180Z,94.60
2017-11-13T08:44:46.293Z,94.50
2017-11-13T08:47:14.413Z,94.50
2017-11-13T08:49:42.541Z,94.30
2017-11-13T08:52:10.699Z,94.20
2017-11-13T08:54:39.160Z,93.60
2017-11-13T08:57:08.061Z,93.50
2017-11-13T08:59:36.932Z,93.50
2017-11-13T09:02:05.063Z,93.30
2017-11-13T09:04:33.937Z,93.00
2017-11-13T09:07:03.717Z,93.00
2017-11-13T09:09:31.845Z,93.00
2017-11-13T09:11:59.979Z,92.80
2017-11-13T09:14:28.844Z,93.00
2017-11-13T09:16:56.989Z,93.00
2017-11-13T09:19:25.232Z,92.40
2017-11-13T09:21:53.688Z,92.50
2017-11-13T09:24:22.564Z,93.20
2017-11-13T09:26:51.660Z,92.40
2017-11-13T09:29:19.798Z,92.30
2017-11-13T09:31:47.927Z,92.40
2017-11-13T09:34:16.073Z,91.90
2017-11-13T09:36:44.696Z,91.60
2017-11-13T09:39:12.860Z,91.50
2017-11-13T09:41:41.012Z,91.40
2017-11-13T09:44:09.172Z,90.90
2017-11-13T09:46:37.359Z,90.50
2017-11-13T09:49:06.244Z,90.00
2017-11-13T09:51:34.421Z,89.90
2017-11-13T09:54:02.583Z,89.90
2017-11-13T09:56:30.773Z,89.50
2017-11-13T09:58:58.917Z,89.40
2017-11-13T10:01:27.093Z,89.20
2017-11-13T10:03:55.661Z,89.20
2017-11-13T10:06:24.568Z,89.60
2017-11-13T10:08:52.948Z,89.60
2017-11-13T10:11:21.169Z,89.30
2017-11-13T10:13:49.397Z,89.10
2017-11-13T10:16:17.590Z,89.00
2017-11-13T10:18:45.816Z,89.10
2017-11-13T10:21:14.512Z,88.40
2017-11-13T10:23:42.660Z,88.40
2017-11-13T10:26:10.854Z,88.00
2017-11-13T10:28:39.235Z,88.10
2017-11-13T10:31:07.424Z,87.90
2017-11-13T10:33:35.651Z,87.30
2017-11-13T10:36:03.861Z,86.80
2017-11-13T10:38:32.384Z,86.10
2017-11-13T10:41:00.560Z,86.30
2017-11-13T10:43:28.741Z,86.30
2017-11-13T10:45:56.905Z,86.50
2017-11-13T10:48:25.077Z,86.10
2017-11-13T10:50:53.264Z,86.20
2017-11-13T10:53:21.476Z,86.10
2017-11-13T10:55:49.711Z,86.30
2017-11-13T10:58:18.249Z,85.90
2017-11-13T11:00:46.514Z,85.80
2017-11-13T11:03:15.005Z,86.30
2017-11-13T11:05:43.217Z,86.40
2017-11-13T11:08:11.437Z,86.60
2017-11-13T11:10:40.388Z,86.60
2017-11-13T11:13:08.665Z,86.40
2017-11-13T11:15:36.916Z,85.80
2017-11-13T11:18:05.143Z,85.60
2017-11-13T11:20:34.194Z,84.00
2017-11-13T11:23:02.410Z,84.00
2017-11-13T11:25:31.096Z,84.30
2017-11-13T11:27:59.342Z,83.90
2017-11-13T11:30:27.904Z,83.60
2017-11-13T11:32:56.135Z,82.70
2017-11-13T11:35:24.321Z,81.50
2017-11-13T11:37:53.250Z,81.30
2017-11-13T11:40:21.454Z,81.10
2017-11-13T11:42:49.642Z,80.90
2017-11-13T11:45:17.841Z,80.00
2017-11-13T11:47:47.175Z,79.90
2017-11-13T11:50:15.353Z,79.80
2017-11-13T11:52:43.613Z,80.40
2017-11-13T11:55:11.824Z,79.30
2017-11-13T11:57:40.040Z,79.30
2017-11-13T12:00:09.032Z,80.00
2017-11-13T12:02:37.229Z,79.80
2017-11-13T12:05:05.381Z,80.20
2017-11-13T12:07:33.551Z,80.00
2017-11-13T12:10:02.468Z,78.90
2017-11-13T12:12:30.964Z,78.90
2017-11-13T12:14:59.169Z,79.10
2017-11-13T12:17:27.342Z,79.30
2017-11-13T12:19:56.253Z,79.50
2017-11-13T12:22:24.414Z,79.40
2017-11-13T12:24:52.585Z,79.50
2017-11-13T12:27:20.712Z,79.40
2017-11-13T12:29:49.274Z,77.60
2017-11-13T12:32:18.180Z,78.60
2017-11-13T12:34:46.339Z,78.50
2017-11-13T12:37:14.456Z,79.10
2017-11-13T12:39:42.605Z,78.40
2017-11-13T12:42:10.795Z,78.40
2017-11-13T12:44:38.921Z,77.70
2017-11-13T12:47:07.045Z,78.10
2017-11-13T12:49:35.188Z,77.50
2017-11-13T12:52:04.129Z,77.80
2017-11-13T12:54:32.780Z,77.70
2017-11-13T12:57:01.036Z,77.90
2017-11-13T12:59:29.274Z,78.00
2017-11-13T13:01:57.541Z,77.90
2017-11-13T13:04:25.841Z,78.10
2017-11-13T13:06:54.053Z,77.90
2017-11-13T13:09:22.233Z,77.90
2017-11-13T13:11:50.380Z,77.90
2017-11-13T13:14:19.809Z,76.90
2017-11-13T13:16:47.950Z,76.90
2017-11-13T13:19:16.105Z,77.10
2017-11-13T13:21:44.249Z,75.60
2017-11-13T13:24:12.412Z,76.10
2017-11-13T13:26:40.524Z,75.00
2017-11-13T13:29:08.696Z,74.20
2017-11-13T13:31:36.875Z,73.50
2017-11-13T13:34:05.038Z,73.60
2017-11-13T13:36:33.585Z,72.30
2017-11-13T13:39:01.744Z,73.30
2017-11-13T13:41:29.894Z,73.80
2017-11-13T13:43:58.086Z,74.60
2017-11-13T13:46:26.216Z,75.00
2017-11-13T13:48:54.411Z,74.80
2017-11-13T13:51:23.324Z,74.30
2017-11-13T13:53:51.465Z,74.30
2017-11-13T13:56:20.009Z,73.60
2017-11-13T13:58:48.233Z,72.70
2017-11-13T14:01:16.405Z,73.20
2017-11-13T14:03:46.049Z,72.50
2017-11-13T14:06:14.221Z,72.50
2017-11-13T14:08:42.450Z,73.10
2017-11-13T14:11:10.727Z,73.30
2017-11-13T14:13:38.913Z,72.70
2017-11-13T14:16:07.074Z,72.80
2017-11-13T14:18:35.205Z,73.00
2017-11-13T14:21:03.817Z,72.90
2017-11-13T14:23:32.406Z,72.60
2017-11-13T14:26:00.653Z,72.40
2017-11-13T14:28:28.881Z,72.50
2017-11-13T14:30:58.570Z,72.00
2017-11-13T14:33:26.955Z,72.00
2017-11-13T14:35:55.169Z,71.80
2017-11-13T14:38:23.580Z,71.40
2017-11-13T14:40:51.737Z,71.30
2017-11-13T14:43:20.454Z,71.00
2017-11-13T14:45:50.103Z,70.20
2017-11-13T14:48:18.551Z,70.20
2017-11-13T14:50:46.685Z,70.20
2017-11-13T14:53:14.828Z,70.20
2017-11-13T14:55:43.033Z,70.20
2017-11-13T14:58:11.188Z,70.00
2017-11-13T15:00:39.349Z,70.00
2017-11-13T15:03:07.486Z,70.20
2017-11-13T15:05:35.616Z,70.50
2017-11-13T15:08:04.516Z,70.70
2017-11-13T15:10:33.665Z,72.00
2017-11-13T15:13:02.356Z,71.10
2017-11-13T15:15:30.577Z,71.30
2017-11-13T15:17:59.523Z,71.90
2017-11-13T15:20:27.730Z,71.80
2017-11-13T15:22:56.945Z,72.70
2017-11-13T15:25:25.144Z,72.70
2017-11-13T15:27:53.328Z,73.00
2017-11-13T15:30:21.552Z,73.40
2017-11-13T15:32:49.717Z,73.60
2017-11-13T15:35:18.309Z,74.00
2017-11-13T15:37:46.551Z,74.40
2017-11-13T15:40:14.708Z,74.60
2017-11-13T15:42:42.853Z,75.00
2017-11-13T15:45:11.000Z,75.40
2017-11-13T15:47:39.185Z,75.70
2017-11-13T15:50:08.076Z,76.30
2017-11-13T15:52:36.985Z,76.60
2017-11-13T15:55:05.649Z,76.40
2017-11-13T15:57:34.544Z,77.00
2017-11-13T16:00:03.457Z,77.50
2017-11-13T16:02:31.621Z,77.50
2017-11-13T16:04:59.744Z,78.00
2017-11-13T16:07:27.884Z,78.50
2017-11-13T16:09:56.056Z,78.90
2017-11-13T16:12:24.249Z,79.20
2017-11-13T16:14:52.385Z,79.90
2017-11-13T16:17:20.534Z,80.40
2017-11-13T16:19:55.457Z,81.20
2017-11-13T16:22:23.628Z,81.90
2017-11-13T16:24:51.780Z,82.40
2017-11-13T16:27:19.937Z,82.70
2017-11-13T16:29:48.084Z,83.00
2017-11-13T16:32:16.973Z,83.80
2017-11-13T16:34:45.890Z,84.30
2017-11-13T16:37:14.178Z,84.30
2017-11-13T16:39:42.536Z,85.10
2017-11-13T16:42:10.712Z,85.80
2017-11-13T16:44:39.540Z,86.10
2017-11-13T16:47:08.683Z,86.50
2017-11-13T16:49:38.044Z,87.10
2017-11-13T16:52:06.222Z,87.10
2017-11-13T16:54:34.493Z,87.40
2017-11-13T16:57:02.657Z,87.50
2017-11-13T16:59:30.839Z,88.00
2017-11-13T17:01:59.027Z,88.60
2017-11-13T17:04:29.760Z,88.50
2017-11-13T17:06:57.916Z,88.50
2017-11-13T17:09:26.060Z,88.30
2017-11-13T17:11:54.229Z,87.70
2017-11-13T17:14:22.413Z,87.00
2017-11-13T17:16:50.531Z,86.40
2017-11-13T17:19:18.788Z,86.00
2017-11-13T17:21:46.946Z,85.40
2017-11-13T17:24:15.175Z,85.40
2017-11-13T17:26:43.328Z,85.20
2017-11-13T17:29:12.259Z,84.80
2017-11-13T17:31:40.479Z,84.40
2017-11-13T17:34:08.613Z,84.20
2017-11-13T17:36:36.780Z,84.00
2017-11-13T17:39:05.444Z,83.70
2017-11-13T17:41:33.620Z,83.50
2017-11-13T17:44:01.777Z,83.50
2017-11-13T17:46:29.969Z,83.50
2017-11-13T17:48:58.181Z,84.20
2017-11-13T17:51:26.388Z,85.10
2017-11-13T17:53:55.049Z,85.10
2017-11-13T17:56:23.345Z,85.60
2017-11-13T17:58:51.496Z,85.80
2017-11-13T18:01:19.706Z,85.70
2017-11-13T18:03:47.888Z,85.40
2017-11-13T18:06:16.048Z,85.70
2017-11-13T18:08:44.228Z,86.10
2017-11-13T18:11:12.430Z,86.60
2017-11-13T18:13:41.361Z,86.80
2017-11-13T18:16:09.601Z,86.70
2017-11-13T18:18:38.901Z,87.50
2017-11-13T18:21:07.161Z,86.80
2017-11-13T18:23:35.329Z,86.90
2017-11-13T18:26:03.532Z,87.00
2017-11-13T18:28:31.697Z,87.20
2017-11-13T18:30:59.866Z,87.20
2017-11-13T18:33:29.809Z,86.90
2017-11-13T18:35:57.961Z,86.90
2017-11-13T18:38:26.113Z,86.90
2017-11-13T18:40:54.268Z,87.10
2017-11-13T18:43:23.393Z,86.80
2017-11-13T18:45:51.556Z,87.10
2017-11-13T18:48:19.770Z,86.90
2017-11-13T18:50:48.664Z,87.70
2017-11-13T18:53:17.585Z,87.70
2017-11-13T18:55:45.753Z,87.60
2017-11-13T18:58:14.293Z,87.80
2017-11-13T19:00:42.468Z,87.90
2017-11-13T19:03:11.357Z,87.70
2017-11-13T19:05:39.503Z,88.40
2017-11-13T19:08:07.751Z,87.80
2017-11-13T19:10:35.913Z,87.70
2017-11-13T19:13:04.081Z,88.40
2017-11-13T19:15:32.242Z,88.60
2017-11-13T19:18:01.154Z,89.10
2017-11-13T19:20:29.374Z,89.00
2017-11-13T19:22:58.018Z,89.10
2017-11-13T19:25:26.332Z,89.10
2017-11-13T19:27:54.484Z,89.40
2017-11-13T19:30:22.672Z,89.50
2017-11-13T19:32:51.004Z,89.40
2017-11-13T19:35:19.904Z,89.60
2017-11-13T19:37:48.417Z,89.60
2017-11-13T19:40:16.569Z,89.50
2017-11-13T19:42:44.773Z,89.70
2017-11-13T19:45:12.989Z,89.80
2017-11-13T19:47:41.889Z,90.50
2017-11-13T19:50:11.204Z,89.90
2017-11-13T19:52:39.583Z,89.90
2017-11-13T19:55:07.714Z,90.00
2017-11-13T19:57:35.868Z,90.00
2017-11-13T20:00:04.189Z,90.40
2017-11-13T20:02:32.369Z,90.40
2017-11-13T20:05:01.280Z,90.80
2017-11-13T20:07:29.501Z,90.80
2017-11-13T20:09:57.641Z,90.60
2017-11-13T20:12:25.792Z,90.70
2017-11-13T20:14:54.365Z,91.10
2017-11-13T20:17:23.267Z,91.20
2017-11-13T20:19:52.155Z,91.40
2017-11-13T20:22:21.059Z,91.40
2017-11-13T20:24:49.222Z,91.40
2017-11-13T20:27:17.393Z,91.50
2017-11-13T20:29:46.306Z,91.50
2017-11-13T20:32:14.474Z,91.50
2017-11-13T20:34:42.677Z,91.50
2017-11-13T20:37:11.142Z,91.60
2017-11-13T20:39:39.284Z,91.80
2017-11-13T20:42:07.534Z,91.80
2017-11-13T20:44:35.733Z,91.60
2017-11-13T20:47:04.700Z,92.20
2017-11-13T20:49:32.912Z,92.10
2017-11-13T20:52:01.110Z,92.20
2017-11-13T20:54:29.290Z,92.50
2017-11-13T20:56:57.505Z,92.70
2017-11-13T20:59:25.920Z,92.60
2017-11-13T21:01:54.435Z,92.40
2017-11-13T21:04:22.587Z,92.40
2017-11-13T21:06:50.788Z,92.50
2017-11-13T21:09:18.934Z,92.50
2017-11-13T21:11:47.060Z,92.80
2017-11-13T21:14:15.935Z,92.80
2017-11-13T21:16:44.068Z,92.80
2017-11-13T21:19:12.187Z,93.00
2017-11-13T21:21:40.721Z,93.30
2017-11-13T21:24:08.867Z,93.30
2017-11-13T21:26:37.000Z,94.20
2017-11-13T21:29:05.162Z,93.80
2017-11-13T21:31:33.339Z,93.50
2017-11-13T21:34:01.495Z,93.50
2017-11-13T21:36:29.646Z,93.70
2017-11-13T21:38:57.791Z,93.70
2017-11-13T21:41:26.010Z,93.80
2017-11-13T21:43:54.578Z,93.90
2017-11-13T21:46:23.506Z,94.30
2017-11-13T21:48:51.710Z,94.30
2017-11-13T21:51:20.145Z,94.30
2017-11-13T21:53:48.267Z,94.50
2017-11-13T21:56:16.411Z,95.40
2017-11-13T21:58:44.549Z,94.50
2017-11-13T22:01:12.683Z,94.20
2017-11-13T22:03:41.234Z,94.00
2017-11-13T22:06:09.408Z,94.00
2017-11-13T22:08:37.563Z,93.90
2017-11-13T22:11:05.687Z,94.00
2017-11-13T22:13:33.907Z,94.20
2017-11-13T22:16:02.078Z,94.50
2017-11-13T22:18:30.279Z,94.70
2017-11-13T22:20:58.475Z,94.80
2017-11-13T22:23:27.315Z,94.90
2017-11-13T22:25:55.433Z,95.20
2017-11-13T22:28:24.999Z,95.40
2017-11-13T22:30:53.905Z,96.30
2017-11-13T22:33:22.061Z,96.10
2017-11-13T22:35:50.263Z,96.80
2017-11-13T22:38:18.462Z,97.10
2017-11-13T22:40:46.643Z,97.40
2017-11-13T22:43:14.822Z,97.40
2017-11-13T22:45:42.982Z,97.40
2017-11-13T22:48:11.199Z,98.10
2017-11-13T22:50:39.358Z,97.20
2017-11-13T22:53:07.976Z,97.30
2017-11-13T22:55:36.133Z,97.00
2017-11-13T22:58:04.287Z,97.10
2017-11-13T23:00:32.447Z,96.80
2017-11-13T23:03:00.612Z,96.70
2017-11-13T23:05:28.751Z,96.50
2017-11-13T23:07:56.882Z,96.30
2017-11-13T23:10:25.053Z,95.90
2017-11-13T23:12:53.194Z,95.60
2017-11-13T23:15:21.331Z,95.30
2017-11-13T23:17:49.749Z,95.00
2017-11-13T23:20:17.880Z,94.70
2017-11-13T23:22:46.000Z,94.30
2017-11-13T23:25:14.134Z,93.90
2017-11-13T23:27:42.998Z,93.30
2017-11-13T23:30:11.176Z,93.30
2017-11-13T23:32:39.308Z,93.20
2017-11-13T23:35:07.451Z,92.80
2017-11-13T23:37:35.586Z,92.40
2017-11-13T23:40:03.723Z,92.10
2017-11-13T23:42:32.330Z,91.90
2017-11-13T23:45:00.499Z,91.80
2017-11-13T23:47:28.682Z,92.40
2017-11-13T23:49:56.840Z,91.50
2017-11-13T23:52:25.062Z,91.40
2017-11-13T23:54:53.255Z,91.20
2017-11-13T23:57:21.714Z,91.10
2017-11-13T23:59:57.015Z,90.80
